Time;durP1;ratioP1;P1;durP2;ratioP2;P2;SDS_P1;SDS_P2;PMS_P1;PMS_P2;Temp;Humidity;BMP_temperature;BMP_pressure;BME280_temperature;BME280_humidity;BME280_pressure;Samples;Min_cycle;Max_cycle;Signal;HPM_P1;HPM_P2
2022/03/13 00:00:24;;;;;;;5.22;3.78;;;8.70;96.70;;;;;;4979649;28;20088;-83
2022/03/13 00:02:54;;;;;;;5.63;4.07;;;8.70;96.70;;;;;;4971444;28;20954;-82
2022/03/13 00:05:23;;;;;;;6.07;3.67;;;8.70;96.70;;;;;;4979583;28;20050;-83
2022/03/13 00:07:55;;;;;;;6.40;3.78;;;8.60;96.70;;;;;;5006450;28;20058;-84
2022/03/13 00:10:27;;;;;;;5.82;3.67;;;8.40;96.70;;;;;;4995056;28;20046;-83
2022/03/13 00:12:55;;;;;;;6.20;4.07;;;8.40;96.70;;;;;;4990797;28;20053;-82
2022/03/13 00:15:32;;;;;;;4.93;3.40;;;8.20;96.70;;;;;;4991415;28;20463;-83
2022/03/13 00:18:01;;;;;;;;;;;8.40;96.70;;;;;;5006472;28;20050;-84
2022/03/13 00:20:31;;;;;;;4.90;3.70;;;8.50;96.70;;;;;;4996426;28;20486;-82
2022/03/13 00:23:01;;;;;;;6.95;3.63;;;8.50;96.70;;;;;;4991021;28;20042;-84
2022/03/13 00:25:29;;;;;;;4.40;3.33;;;8.60;96.70;;;;;;4973946;28;20606;-84
2022/03/13 00:27:57;;;;;;;4.85;3.20;;;8.60;96.70;;;;;;4997623;28;20054;-83
2022/03/13 00:30:25;;;;;;;4.60;3.80;;;8.60;96.70;;;;;;5006042;28;20050;-84
2022/03/13 00:32:54;;;;;;;6.82;3.65;;;8.50;96.70;;;;;;4993390;28;20054;-83
2022/03/13 00:35:22;;;;;;;5.90;3.88;;;8.30;96.70;;;;;;4990591;28;20065;-83
2022/03/13 00:37:50;;;;;;;6.75;3.85;;;8.30;96.70;;;;;;4979458;28;20823;-83
2022/03/13 00:40:20;;;;;;;4.63;3.30;;;8.40;96.70;;;;;;4979224;28;20054;-84
2022/03/13 00:42:50;;;;;;;5.05;3.38;;;8.40;96.70;;;;;;5014738;28;20073;-83
2022/03/13 00:45:18;;;;;;;7.50;3.78;;;8.40;96.70;;;;;;5007727;28;20046;-84
2022/03/13 00:47:46;;;;;;;4.80;3.55;;;8.30;96.70;;;;;;4989793;28;20042;-83
2022/03/13 00:50:15;;;;;;;4.63;3.60;;;8.20;96.70;;;;;;4977976;28;20062;-84
2022/03/13 00:52:44;;;;;;;8.73;4.05;;;8.20;96.70;;;;;;4987128;28;20162;-84
2022/03/13 00:55:13;;;;;;;5.05;3.63;;;8.30;96.70;;;;;;4990549;28;20038;-83
2022/03/13 00:57:43;;;;;;;5.82;3.60;;;8.30;96.70;;;;;;4990260;28;20077;-83
2022/03/13 01:00:13;;;;;;;5.22;3.42;;;8.40;96.70;;;;;;4969708;28;20050;-83
2022/03/13 01:02:42;;;;;;;6.18;3.70;;;8.40;96.70;;;;;;4973172;28;20042;-83
2022/03/13 01:05:11;;;;;;;5.18;3.70;;;8.40;96.70;;;;;;5006246;28;20047;-83
2022/03/13 01:07:39;;;;;;;4.80;3.35;;;8.40;96.70;;;;;;4977442;28;20056;-82
2022/03/13 01:10:12;;;;;;;4.80;3.60;;;8.40;96.70;;;;;;4990344;28;20042;-83
2022/03/13 01:12:43;;;;;;;5.47;3.53;;;8.20;96.70;;;;;;4989092;28;20046;-82
2022/03/13 01:15:11;;;;;;;9.60;3.88;;;8.20;96.70;;;;;;4974739;28;20054;-82
2022/03/13 01:17:39;;;;;;;4.90;3.70;;;8.10;96.70;;;;;;4993067;28;20042;-83
2022/03/13 01:20:15;;;;;;;4.57;3.20;;;8.20;96.70;;;;;;5005677;28;20038;-83
2022/03/13 01:22:48;;;;;;;6.90;3.60;;;8.20;96.70;;;;;;4989657;28;20035;-82
2022/03/13 01:25:17;;;;;;;6.22;3.65;;;8.40;96.70;;;;;;4990048;28;20038;-83
2022/03/13 01:27:54;;;;;;;5.25;3.03;;;8.20;96.70;;;;;;5007651;28;20062;-83
2022/03/13 01:30:24;;;;;;;4.82;3.08;;;8.20;96.70;;;;;;4992401;28;20046;-83
2022/03/13 01:32:53;;;;;;;4.75;3.63;;;8.30;96.70;;;;;;4998330;28;20056;-82
2022/03/13 01:35:23;;;;;;;5.25;3.92;;;8.40;96.70;;;;;;5005980;28;20076;-83
2022/03/13 01:37:52;;;;;;;5.22;3.47;;;8.30;96.70;;;;;;5005006;28;20053;-83
2022/03/13 01:40:22;;;;;;;6.75;3.75;;;8.30;96.70;;;;;;5006346;28;20046;-83
2022/03/13 01:42:51;;;;;;;6.10;4.28;;;8.40;96.70;;;;;;4973636;28;20053;-82
2022/03/13 01:45:25;;;;;;;5.70;3.33;;;8.50;96.70;;;;;;4995140;28;20042;-82
2022/03/13 01:47:54;;;;;;;5.85;3.70;;;8.30;96.70;;;;;;5000252;28;20058;-82
2022/03/13 01:50:22;;;;;;;4.22;3.25;;;8.40;96.70;;;;;;4972179;28;20567;-81
2022/03/13 01:52:50;;;;;;;7.80;3.95;;;8.40;96.70;;;;;;5020607;28;20054;-82
2022/03/13 01:55:18;;;;;;;5.68;3.45;;;8.40;96.70;;;;;;4975085;28;20118;-83
2022/03/13 01:57:47;;;;;;;5.28;3.65;;;8.40;96.70;;;;;;4987917;28;20177;-83
2022/03/13 02:00:19;;;;;;;5.68;3.60;;;8.30;96.70;;;;;;4992076;28;20050;-83
2022/03/13 02:02:49;;;;;;;4.70;3.28;;;8.30;96.70;;;;;;4988485;28;20079;-82
2022/03/13 02:05:30;;;;;;;6.57;3.83;;;8.30;96.70;;;;;;4988191;28;20051;-81
2022/03/13 02:07:59;;;;;;;6.38;3.90;;;8.30;96.70;;;;;;4982180;28;20128;-83
2022/03/13 02:10:30;;;;;;;5.32;3.90;;;8.10;96.70;;;;;;5004768;28;20046;-83
2022/03/13 02:12:59;;;;;;;6.75;3.75;;;8.00;96.70;;;;;;4992993;28;20072;-83
2022/03/13 02:15:31;;;;;;;5.47;3.50;;;7.80;96.70;;;;;;4987736;28;20049;-82
2022/03/13 02:18:09;;;;;;;7.00;3.95;;;7.80;96.70;;;;;;5006017;28;20046;-76
2022/03/13 02:20:41;;;;;;;5.38;3.67;;;7.80;96.70;;;;;;4993004;28;20566;-82
2022/03/13 02:23:19;;;;;;;5.63;3.55;;;7.90;96.70;;;;;;4984190;28;20403;-77
2022/03/13 02:25:49;;;;;;;5.28;3.35;;;7.80;96.70;;;;;;4983497;28;20049;-76
2022/03/13 02:28:20;;;;;;;6.53;3.70;;;7.80;96.70;;;;;;5003890;28;20054;-76
2022/03/13 02:30:50;;;;;;;5.68;3.78;;;7.90;96.70;;;;;;4983729;28;20488;-77
2022/03/13 02:33:20;;;;;;;6.97;4.35;;;7.90;96.70;;;;;;4970930;28;20816;-77
2022/03/13 02:35:52;;;;;;;4.95;3.60;;;7.90;96.70;;;;;;4998068;28;20427;-77
2022/03/13 02:38:23;;;;;;;5.55;3.78;;;8.00;96.70;;;;;;5004300;28;20054;-76
2022/03/13 02:40:52;;;;;;;6.85;3.88;;;7.90;96.70;;;;;;4981780;28;20046;-77
2022/03/13 02:43:21;;;;;;;5.32;3.97;;;7.90;96.70;;;;;;4997680;28;20068;-76
2022/03/13 02:45:52;;;;;;;5.55;3.70;;;7.80;96.70;;;;;;4997629;28;20034;-77
2022/03/13 02:48:21;;;;;;;5.45;3.95;;;7.70;96.70;;;;;;5018614;28;20069;-76
2022/03/13 02:50:49;;;;;;;5.63;3.75;;;7.60;96.70;;;;;;4965946;28;20084;-77
2022/03/13 02:53:18;;;;;;;5.63;3.55;;;7.60;96.70;;;;;;4986404;28;20046;-76
2022/03/13 02:55:47;;;;;;;4.93;3.90;;;7.50;96.70;;;;;;4965460;28;20038;-76
2022/03/13 02:58:17;;;;;;;5.63;4.32;;;7.50;96.70;;;;;;5031097;28;20046;-82
2022/03/13 03:00:47;;;;;;;4.97;3.97;;;7.50;96.70;;;;;;4989422;28;20039;-75
2022/03/13 03:03:17;;;;;;;5.20;3.92;;;7.50;96.70;;;;;;4986951;28;20046;-76
2022/03/13 03:05:46;;;;;;;6.75;4.03;;;7.30;96.70;;;;;;4985781;28;20038;-76
2022/03/13 03:08:14;;;;;;;8.90;4.47;;;7.40;96.70;;;;;;5000982;28;20137;-76
2022/03/13 03:10:43;;;;;;;6.82;4.00;;;7.30;96.70;;;;;;4983002;28;20038;-75
2022/03/13 03:13:15;;;;;;;7.88;4.38;;;7.20;96.70;;;;;;4987443;28;20178;-76
2022/03/13 03:15:43;;;;;;;6.97;4.57;;;7.10;96.70;;;;;;4981700;28;20142;-76
2022/03/13 03:18:11;;;;;;;5.10;4.07;;;7.10;96.70;;;;;;4982590;28;20085;-76
2022/03/13 03:20:40;;;;;;;10.98;5.05;;;7.10;96.70;;;;;;4995354;28;20042;-76
2022/03/13 03:23:08;;;;;;;7.30;5.03;;;7.10;96.70;;;;;;4983152;28;20832;-76
2022/03/13 03:25:36;;;;;;;5.63;4.38;;;7.10;96.70;;;;;;4982351;28;20078;-75
2022/03/13 03:28:06;;;;;;;6.65;4.35;;;7.00;96.70;;;;;;4998094;28;20058;-76
2022/03/13 03:30:36;;;;;;;6.72;4.85;;;6.90;96.70;;;;;;4998214;28;20050;-75
2022/03/13 03:33:04;;;;;;;5.68;4.47;;;6.80;96.70;;;;;;4994889;28;20060;-76
2022/03/13 03:35:34;;;;;;;7.82;4.18;;;6.70;96.70;;;;;;4981634;28;20059;-76
2022/03/13 03:38:02;;;;;;;5.80;4.13;;;6.60;96.70;;;;;;4982869;28;20034;-76
2022/03/13 03:40:33;;;;;;;7.78;4.32;;;6.60;96.70;;;;;;4983728;28;20050;-76
2022/03/13 03:43:03;;;;;;;7.78;4.50;;;6.60;96.70;;;;;;4998919;28;20057;-76
2022/03/13 03:45:31;;;;;;;6.95;4.82;;;6.60;96.70;;;;;;5001922;28;20566;-76
2022/03/13 03:48:01;;;;;;;6.47;4.65;;;6.60;96.70;;;;;;5000273;28;20138;-76
2022/03/13 03:50:29;;;;;;;7.30;4.40;;;6.50;96.70;;;;;;4997732;28;20077;-76
2022/03/13 03:52:57;;;;;;;7.35;4.60;;;6.60;96.70;;;;;;4997685;28;20050;-76
2022/03/13 03:55:27;;;;;;;7.03;4.68;;;6.50;96.70;;;;;;5002802;28;20042;-76
2022/03/13 03:57:55;;;;;;;7.03;5.07;;;6.50;96.70;;;;;;4970898;28;20153;-76
2022/03/13 04:00:24;;;;;;;5.68;4.10;;;6.50;96.70;;;;;;4988084;28;20109;-76
2022/03/13 04:02:52;;;;;;;6.57;4.72;;;6.50;96.70;;;;;;4986732;28;20053;-76
2022/03/13 04:05:23;;;;;;;7.70;4.97;;;6.40;96.70;;;;;;4970379;28;20088;-76
2022/03/13 04:07:51;;;;;;;7.78;5.07;;;6.50;96.70;;;;;;5000783;28;20050;-76
2022/03/13 04:10:19;;;;;;;8.95;4.90;;;6.40;96.70;;;;;;4986714;28;20057;-76
2022/03/13 04:12:47;;;;;;;6.82;4.68;;;6.50;96.70;;;;;;4985246;28;20047;-76
2022/03/13 04:15:15;;;;;;;7.40;5.03;;;6.60;96.70;;;;;;4971536;28;20050;-77
2022/03/13 04:17:44;;;;;;;8.55;5.07;;;6.60;96.70;;;;;;4986249;28;20039;-76
2022/03/13 04:20:12;;;;;;;5.93;4.70;;;6.60;96.70;;;;;;4988144;28;20042;-76
2022/03/13 04:22:42;;;;;;;6.78;4.88;;;6.60;96.70;;;;;;4967234;28;20137;-76
2022/03/13 04:25:11;;;;;;;8.73;5.35;;;6.60;96.70;;;;;;4984942;28;20046;-77
2022/03/13 04:27:39;;;;;;;6.57;4.68;;;6.40;96.70;;;;;;4968526;28;20050;-76
2022/03/13 04:30:08;;;;;;;8.75;4.10;;;6.40;96.70;;;;;;4989684;28;20042;-76
2022/03/13 04:32:37;;;;;;;7.35;4.60;;;6.50;96.70;;;;;;4999971;28;20602;-78
2022/03/13 04:35:05;;;;;;;7.93;5.35;;;6.40;96.70;;;;;;4982136;28;20156;-76
2022/03/13 04:37:33;;;;;;;6.15;4.60;;;6.30;96.70;;;;;;4964718;28;20464;-76
2022/03/13 04:40:04;;;;;;;5.57;4.55;;;6.20;96.70;;;;;;4982947;28;20043;-77
2022/03/13 04:42:32;;;;;;;6.88;4.35;;;6.20;96.70;;;;;;4998928;28;20050;-77
2022/03/13 04:45:01;;;;;;;7.68;4.53;;;6.00;96.70;;;;;;4967421;28;20046;-76
2022/03/13 04:47:31;;;;;;;7.82;4.63;;;6.00;96.70;;;;;;4973395;28;20042;-76
2022/03/13 04:49:59;;;;;;;6.80;4.53;;;6.20;96.70;;;;;;4966986;28;20047;-76
2022/03/13 04:52:28;;;;;;;8.15;4.88;;;6.10;96.70;;;;;;5015234;28;20088;-76
2022/03/13 04:54:56;;;;;;;7.75;4.25;;;6.10;96.70;;;;;;4983226;28;20051;-76
2022/03/13 04:57:25;;;;;;;6.90;4.68;;;6.10;96.70;;;;;;4964068;28;20049;-77
2022/03/13 04:59:53;;;;;;;6.55;4.15;;;6.20;96.70;;;;;;4965279;28;20121;-77
2022/03/13 05:02:21;;;;;;;6.40;4.40;;;6.10;96.70;;;;;;4981850;28;20401;-76
2022/03/13 05:04:49;;;;;;;7.10;4.63;;;6.10;96.70;;;;;;4965221;28;20046;-76
2022/03/13 05:07:19;;;;;;;6.65;4.18;;;6.00;96.70;;;;;;4997300;28;20038;-77
2022/03/13 05:09:47;;;;;;;6.20;4.70;;;5.90;96.70;;;;;;4997318;28;20050;-77
2022/03/13 05:12:16;;;;;;;5.45;4.10;;;5.80;96.70;;;;;;4984023;28;20047;-76
2022/03/13 05:14:46;;;;;;;5.25;3.70;;;5.90;96.70;;;;;;4981530;28;20047;-76
2022/03/13 05:17:14;;;;;;;6.07;4.28;;;5.90;96.70;;;;;;5001118;28;20057;-76
2022/03/13 05:19:42;;;;;;;6.50;4.53;;;5.90;96.70;;;;;;4965995;28;20054;-76
2022/03/13 05:22:10;;;;;;;7.45;5.43;;;6.00;96.70;;;;;;5000475;28;20047;-76
2022/03/13 05:24:38;;;;;;;9.02;6.20;;;6.00;96.70;;;;;;4965542;28;20094;-76
2022/03/13 05:27:07;;;;;;;10.80;6.63;;;6.00;96.70;;;;;;4972561;28;20042;-76
2022/03/13 05:29:34;;;;;;;11.45;6.90;;;6.00;96.70;;;;;;4964908;28;20047;-77
2022/03/13 05:32:05;;;;;;;9.70;6.68;;;6.10;96.70;;;;;;4999870;28;20054;-76
2022/03/13 05:34:33;;;;;;;10.38;6.55;;;6.10;96.70;;;;;;4967967;28;20053;-75
2022/03/13 05:37:01;;;;;;;9.90;6.30;;;6.10;96.70;;;;;;5004246;28;20050;-76
2022/03/13 05:39:29;;;;;;;8.82;5.85;;;6.00;96.70;;;;;;4980205;28;20038;-76
2022/03/13 05:41:59;;;;;;;9.35;5.85;;;6.00;96.70;;;;;;4981004;28;20054;-76
2022/03/13 05:44:27;;;;;;;8.80;5.75;;;6.00;96.70;;;;;;5002360;28;20069;-76
2022/03/13 05:46:55;;;;;;;8.70;6.03;;;6.00;96.70;;;;;;4998759;28;20046;-76
2022/03/13 05:49:25;;;;;;;8.57;5.85;;;6.10;96.70;;;;;;5000596;28;20601;-76
2022/03/13 05:51:53;;;;;;;7.93;5.32;;;6.20;96.70;;;;;;4987645;28;20503;-76
2022/03/13 05:54:21;;;;;;;10.02;5.47;;;6.10;96.70;;;;;;4985509;28;20236;-76
2022/03/13 05:56:50;;;;;;;9.20;5.97;;;6.10;96.70;;;;;;4983951;28;20105;-76
2022/03/13 05:59:20;;;;;;;10.05;6.13;;;6.20;96.70;;;;;;4986892;28;20054;-77
2022/03/13 06:01:47;;;;;;;10.77;6.93;;;6.20;96.70;;;;;;4973199;28;20092;-77
2022/03/13 06:04:16;;;;;;;12.13;7.00;;;6.30;96.70;;;;;;4988370;28;20046;-78
2022/03/13 06:06:46;;;;;;;10.80;5.93;;;6.30;96.70;;;;;;5003524;28;20043;-76
2022/03/13 06:09:13;;;;;;;9.95;5.90;;;6.20;96.70;;;;;;4998831;28;20141;-75
2022/03/13 06:11:41;;;;;;;10.57;5.63;;;6.20;96.70;;;;;;4982435;28;20465;-76
2022/03/13 06:14:09;;;;;;;10.90;5.68;;;6.30;96.70;;;;;;4972626;28;20076;-76
2022/03/13 06:16:38;;;;;;;9.68;5.68;;;6.30;96.70;;;;;;4967041;28;20046;-76
2022/03/13 06:19:06;;;;;;;7.95;5.47;;;6.30;96.70;;;;;;5003120;28;20511;-76
2022/03/13 06:21:35;;;;;;;7.90;5.47;;;6.30;96.70;;;;;;4983091;28;20050;-76
2022/03/13 06:24:05;;;;;;;7.18;4.82;;;6.40;96.70;;;;;;4984664;28;20134;-76
2022/03/13 06:26:34;;;;;;;7.15;4.45;;;6.50;96.70;;;;;;5001176;28;20050;-77
2022/03/13 06:29:04;;;;;;;7.25;5.05;;;6.40;96.70;;;;;;4983236;28;20061;-76
2022/03/13 06:31:32;;;;;;;6.38;4.57;;;6.40;96.70;;;;;;4982873;28;20056;-76
2022/03/13 06:34:01;;;;;;;6.82;4.80;;;6.50;96.70;;;;;;4966346;28;20132;-77
2022/03/13 06:36:30;;;;;;;7.32;4.93;;;6.50;96.70;;;;;;4995043;28;20063;-76
2022/03/13 06:38:59;;;;;;;7.30;4.80;;;6.60;96.70;;;;;;4963222;28;20097;-76
2022/03/13 06:41:29;;;;;;;7.65;4.35;;;6.60;96.70;;;;;;4994323;28;20134;-76
2022/03/13 06:43:57;;;;;;;7.65;5.60;;;6.70;96.70;;;;;;4964450;28;20042;-77
2022/03/13 06:46:25;;;;;;;9.75;5.80;;;6.70;96.70;;;;;;4994247;28;21466;-76
2022/03/13 06:48:53;;;;;;;7.32;4.93;;;6.80;96.70;;;;;;4963689;28;20051;-76
2022/03/13 06:51:22;;;;;;;7.97;5.10;;;6.70;96.70;;;;;;4978988;28;20133;-75
2022/03/13 06:53:50;;;;;;;9.02;5.65;;;6.80;96.70;;;;;;4965585;28;20065;-77
2022/03/13 06:56:18;;;;;;;6.50;5.10;;;6.80;96.70;;;;;;4993910;28;20045;-76
2022/03/13 06:58:48;;;;;;;7.28;5.00;;;6.90;96.70;;;;;;4966404;28;20733;-77
2022/03/13 07:01:16;;;;;;;9.43;5.05;;;7.00;96.70;;;;;;4962823;28;20043;-77
2022/03/13 07:03:45;;;;;;;7.28;5.30;;;7.10;96.70;;;;;;4964554;28;20133;-76
2022/03/13 07:06:14;;;;;;;8.07;5.28;;;7.00;96.70;;;;;;4995610;28;20051;-77
2022/03/13 07:08:42;;;;;;;9.25;5.40;;;7.10;96.70;;;;;;4998864;28;20086;-76
2022/03/13 07:11:10;;;;;;;7.75;5.03;;;7.20;96.70;;;;;;4982928;28;20077;-76
2022/03/13 07:13:41;;;;;;;6.93;4.78;;;7.20;96.70;;;;;;4978379;28;20034;-76
2022/03/13 07:16:14;;;;;;;8.77;6.20;;;7.20;96.70;;;;;;4979377;28;20511;-76
2022/03/13 07:18:42;;;;;;;7.72;4.50;;;7.30;96.70;;;;;;4977780;28;20130;-75
2022/03/13 07:21:12;;;;;;;6.68;4.70;;;7.40;96.70;;;;;;4965584;28;20074;-76
2022/03/13 07:23:40;;;;;;;9.15;4.63;;;7.50;96.70;;;;;;4979480;28;20051;-76
2022/03/13 07:26:08;;;;;;;6.63;4.47;;;7.60;96.70;;;;;;4980221;28;20042;-79
2022/03/13 07:28:37;;;;;;;6.60;4.70;;;7.70;96.70;;;;;;4995246;28;20062;-76
2022/03/13 07:31:05;;;;;;;6.68;4.78;;;7.70;96.70;;;;;;5003562;28;20148;-76
2022/03/13 07:33:35;;;;;;;6.03;4.60;;;7.90;96.70;;;;;;4967689;28;20456;-77
2022/03/13 07:36:03;;;;;;;5.75;4.63;;;7.90;96.70;;;;;;5016297;28;20055;-77
2022/03/13 07:38:31;;;;;;;5.70;4.32;;;7.90;96.70;;;;;;4998991;28;20058;-76
2022/03/13 07:40:59;;;;;;;5.60;3.80;;;8.00;96.70;;;;;;4983507;28;20074;-76
2022/03/13 07:43:28;;;;;;;5.43;4.07;;;8.00;96.70;;;;;;5018316;28;20106;-76
2022/03/13 07:45:56;;;;;;;6.70;3.92;;;8.10;96.70;;;;;;4972344;28;20068;-77
2022/03/13 07:48:24;;;;;;;5.70;3.92;;;8.20;96.70;;;;;;4998235;28;20043;-76
2022/03/13 07:50:54;;;;;;;6.05;3.65;;;8.10;96.70;;;;;;5000605;28;20133;-76
2022/03/13 07:53:26;;;;;;;5.53;3.95;;;8.10;96.70;;;;;;4981171;28;20047;-75
2022/03/13 07:55:55;;;;;;;4.82;3.78;;;8.10;96.70;;;;;;4983171;28;20043;-76
2022/03/13 07:58:24;;;;;;;6.93;3.80;;;8.20;96.70;;;;;;4965200;28;20043;-76
2022/03/13 08:00:53;;;;;;;5.40;3.53;;;8.30;96.70;;;;;;4985366;28;20069;-75
2022/03/13 08:03:34;;;;;;;4.68;3.50;;;8.40;96.70;;;;;;4981332;28;20054;-76
2022/03/13 08:06:04;;;;;;;5.68;3.25;;;8.50;96.70;;;;;;5001818;28;20054;-76
2022/03/13 08:08:37;;;;;;;5.75;3.75;;;8.60;96.70;;;;;;4998266;28;20063;-77
2022/03/13 08:11:06;;;;;;;4.15;3.08;;;8.60;96.70;;;;;;4983266;28;20105;-76
2022/03/13 08:13:34;;;;;;;5.60;3.10;;;8.70;96.70;;;;;;4966572;28;20046;-76
2022/03/13 08:16:02;;;;;;;5.15;3.20;;;8.80;96.70;;;;;;4972015;28;20035;-76
2022/03/13 08:18:31;;;;;;;8.48;3.60;;;8.80;96.70;;;;;;4980567;28;20045;-75
2022/03/13 08:20:59;;;;;;;6.22;3.90;;;8.80;96.70;;;;;;4981687;28;20047;-77
2022/03/13 08:23:29;;;;;;;5.07;3.28;;;8.90;96.70;;;;;;4998941;28;20047;-77
2022/03/13 08:25:57;;;;;;;4.47;3.25;;;8.90;96.70;;;;;;4968511;28;20275;-82
2022/03/13 08:28:25;;;;;;;5.38;3.72;;;9.00;96.70;;;;;;5003635;28;20686;-82
2022/03/13 08:30:57;;;;;;;7.85;4.90;;;9.10;96.70;;;;;;5000833;28;20078;-82
2022/03/13 08:33:25;;;;;;;6.07;4.30;;;9.20;96.70;;;;;;5003960;28;20136;-83
2022/03/13 08:35:54;;;;;;;8.85;4.65;;;9.30;96.70;;;;;;4997190;28;20055;-76
2022/03/13 08:38:22;;;;;;;9.48;5.50;;;9.40;96.70;;;;;;4971780;28;20841;-80
2022/03/13 08:40:52;;;;;;;11.77;5.88;;;9.40;96.70;;;;;;4968163;28;20057;-80
2022/03/13 08:43:20;;;;;;;8.00;5.00;;;9.50;96.70;;;;;;4985755;28;20066;-79
2022/03/13 08:45:49;;;;;;;6.38;3.55;;;9.60;96.70;;;;;;4976075;28;20050;-79
2022/03/13 08:48:22;;;;;;;7.90;3.58;;;9.60;96.70;;;;;;4988069;28;20047;-80
2022/03/13 08:50:51;;;;;;;5.55;3.42;;;9.70;96.70;;;;;;5006921;28;20061;-83
2022/03/13 08:53:20;;;;;;;8.63;3.42;;;9.70;96.70;;;;;;4969722;28;20047;-78
2022/03/13 08:55:48;;;;;;;5.38;3.53;;;9.80;96.70;;;;;;4968038;28;20077;-81
2022/03/13 08:58:18;;;;;;;6.30;3.67;;;9.90;96.70;;;;;;4970473;28;20090;-79
2022/03/13 09:00:46;;;;;;;6.85;3.22;;;10.00;96.70;;;;;;4997948;28;20134;-78
2022/03/13 09:03:16;;;;;;;5.90;3.55;;;10.00;96.70;;;;;;4968911;28;20620;-77
2022/03/13 09:05:49;;;;;;;4.93;3.53;;;10.10;96.70;;;;;;4998402;28;20117;-79
2022/03/13 09:08:17;;;;;;;5.57;3.40;;;10.20;96.70;;;;;;4973401;28;20448;-77
2022/03/13 09:10:52;;;;;;;5.38;3.53;;;10.20;96.50;;;;;;4968698;28;20039;-79
2022/03/13 09:13:22;;;;;;;5.80;3.28;;;10.20;96.30;;;;;;4989737;28;20412;-86
2022/03/13 09:15:51;;;;;;;4.72;2.92;;;10.20;96.20;;;;;;4984415;28;20046;-79
2022/03/13 09:18:19;;;;;;;4.30;3.28;;;10.30;95.90;;;;;;4969266;28;20043;-77
2022/03/13 09:20:48;;;;;;;3.78;2.58;;;10.40;95.90;;;;;;5001753;28;20035;-79
2022/03/13 09:23:16;;;;;;;6.28;2.97;;;10.60;95.10;;;;;;4977056;28;20046;-80
2022/03/13 09:25:44;;;;;;;5.03;3.03;;;10.60;95.10;;;;;;5009767;28;20096;-80
2022/03/13 09:28:12;;;;;;;4.70;2.92;;;10.70;94.90;;;;;;5000757;28;20049;-81
2022/03/13 09:30:42;;;;;;;4.10;3.10;;;10.80;94.80;;;;;;5003753;28;20055;-81
2022/03/13 09:33:12;;;;;;;5.20;2.55;;;10.70;94.10;;;;;;4971923;28;20142;-80
2022/03/13 09:35:42;;;;;;;3.75;2.60;;;10.80;94.20;;;;;;5002377;28;20942;-78
2022/03/13 09:38:10;;;;;;;4.30;3.05;;;10.90;94.00;;;;;;4969687;28;20051;-80
2022/03/13 09:40:39;;;;;;;3.47;3.05;;;11.00;93.30;;;;;;4986745;28;20046;-82
2022/03/13 09:43:07;;;;;;;4.85;3.22;;;11.10;93.00;;;;;;4973493;28;20047;-81
2022/03/13 09:45:36;;;;;;;5.00;3.08;;;11.20;92.80;;;;;;4999948;28;20420;-81
2022/03/13 09:48:10;;;;;;;6.72;2.97;;;11.30;91.90;;;;;;4972520;28;20047;-79
2022/03/13 09:50:40;;;;;;;5.22;3.20;;;11.50;91.50;;;;;;4967468;28;20145;-80
2022/03/13 09:53:11;;;;;;;5.18;3.20;;;11.50;91.10;;;;;;4997169;28;20087;-82
2022/03/13 09:55:40;;;;;;;5.25;3.20;;;11.50;91.60;;;;;;4989831;28;20133;-80
2022/03/13 09:58:08;;;;;;;3.88;2.88;;;11.60;91.60;;;;;;4965761;28;20822;-82
2022/03/13 10:00:37;;;;;;;5.18;3.65;;;11.70;91.40;;;;;;5016711;28;20141;-81
2022/03/13 10:03:08;;;;;;;6.40;3.90;;;11.90;91.00;;;;;;4969615;28;20046;-81
2022/03/13 10:05:43;;;;;;;6.85;3.25;;;11.80;90.40;;;;;;4983593;28;20077;-81
2022/03/13 10:08:12;;;;;;;4.07;3.20;;;11.90;89.90;;;;;;4967665;28;20134;-81
2022/03/13 10:10:42;;;;;;;6.00;3.92;;;12.00;90.60;;;;;;4966244;28;20050;-80
2022/03/13 10:13:11;;;;;;;5.65;3.50;;;12.10;90.90;;;;;;5001101;28;20084;-88
2022/03/13 10:15:46;;;;;;;4.18;3.42;;;12.20;91.30;;;;;;4982637;28;20941;-81
2022/03/13 10:18:17;;;;;;;7.15;3.80;;;12.30;90.60;;;;;;4984525;28;20061;-79
2022/03/13 10:20:46;;;;;;;5.90;3.50;;;12.40;90.30;;;;;;4972573;28;20055;-81
2022/03/13 10:23:22;;;;;;;6.35;3.90;;;12.40;89.70;;;;;;4968616;28;20042;-81
2022/03/13 10:25:52;;;;;;;6.17;4.23;;;12.50;89.20;;;;;;4970558;28;20046;-82
2022/03/13 10:28:22;;;;;;;5.47;3.70;;;12.70;88.80;;;;;;4970570;28;20039;-81
2022/03/13 10:31:07;;;;;;;5.78;3.70;;;12.80;87.80;;;;;;5017272;28;20141;-81
2022/03/13 10:34:00;;;;;;;4.90;4.00;;;12.90;87.60;;;;;;4990494;28;20592;-82
2022/03/13 10:36:35;;;;;;;7.95;4.50;;;13.10;87.90;;;;;;4983541;28;20058;-80
2022/03/13 10:39:10;;;;;;;5.18;3.35;;;13.10;87.90;;;;;;4970767;28;20085;-82
2022/03/13 10:41:45;;;;;;;6.25;3.70;;;13.10;87.90;;;;;;4979665;28;20046;-81
2022/03/13 10:44:16;;;;;;;5.13;3.38;;;13.20;87.20;;;;;;4981604;28;20043;-82
2022/03/13 10:46:52;;;;;;;4.55;3.22;;;13.30;87.90;;;;;;4969541;28;20047;-81
2022/03/13 10:49:36;;;;;;;5.45;3.75;;;13.30;87.80;;;;;;4968889;28;20614;-83
2022/03/13 10:52:25;;;;;;;5.40;3.70;;;13.30;88.10;;;;;;4985358;28;20089;-82
2022/03/13 10:54:54;;;;;;;4.82;3.80;;;13.40;87.80;;;;;;4968797;28;20057;-82
2022/03/13 10:57:23;;;;;;;5.68;3.75;;;13.40;87.90;;;;;;4968345;28;20076;-81
2022/03/13 11:00:10;;;;;;;7.35;4.10;;;13.40;88.20;;;;;;4999715;28;20058;-83
2022/03/13 11:02:39;;;;;;;4.85;3.58;;;13.60;88.30;;;;;;4966937;28;20093;-86
2022/03/13 11:05:09;;;;;;;4.22;3.35;;;13.70;88.40;;;;;;5004980;28;20085;-84
2022/03/13 11:07:38;;;;;;;5.38;3.72;;;13.90;88.00;;;;;;4980268;28;20046;-86
2022/03/13 11:10:08;;;;;;;7.50;3.67;;;13.90;88.30;;;;;;4972713;28;20117;-82
2022/03/13 11:12:41;;;;;;;5.93;3.60;;;14.00;88.00;;;;;;4987398;28;20054;-82
2022/03/13 11:15:11;;;;;;;5.03;3.22;;;14.00;88.20;;;;;;4973398;28;20047;-84
2022/03/13 11:17:41;;;;;;;7.78;4.43;;;14.10;88.90;;;;;;4976924;28;20231;-86
2022/03/13 11:20:11;;;;;;;5.20;3.50;;;14.10;88.90;;;;;;4999307;28;20492;-84
2022/03/13 11:22:40;;;;;;;5.07;3.53;;;14.30;88.90;;;;;;5007671;28;20051;-85
2022/03/13 11:25:09;;;;;;;4.82;3.47;;;14.20;89.10;;;;;;5002927;28;20102;-85
2022/03/13 11:27:40;;;;;;;7.30;3.85;;;14.30;89.10;;;;;;5013846;28;20042;-85
2022/03/13 11:30:13;;;;;;;5.80;4.03;;;14.30;89.20;;;;;;4971888;28;20420;-84
2022/03/13 11:32:46;;;;;;;7.25;3.78;;;14.40;89.00;;;;;;5004469;28;20046;-84
2022/03/13 11:35:30;;;;;;;4.75;3.58;;;14.40;88.90;;;;;;5002963;28;20055;-84
2022/03/13 11:38:21;;;;;;;6.43;3.53;;;14.40;89.20;;;;;;4982856;28;20047;-83
2022/03/13 11:40:50;;;;;;;5.25;3.45;;;14.60;89.30;;;;;;5012341;28;20047;-85
2022/03/13 11:43:20;;;;;;;3.88;3.47;;;14.80;88.90;;;;;;5004016;28;20050;-83
2022/03/13 11:45:52;;;;;;;4.82;3.63;;;14.70;88.70;;;;;;4987721;28;20053;-83
2022/03/13 11:48:39;;;;;;;5.40;3.90;;;14.70;88.30;;;;;;5003712;28;20058;-82
2022/03/13 11:51:09;;;;;;;6.40;3.85;;;14.70;88.00;;;;;;4970870;28;20508;-82
2022/03/13 11:53:45;;;;;;;5.35;3.45;;;14.70;88.30;;;;;;4971032;28;20492;-82
2022/03/13 11:56:26;;;;;;;4.68;3.70;;;14.60;87.60;;;;;;4971480;28;20043;-81
2022/03/13 11:59:00;;;;;;;5.32;3.45;;;14.60;87.30;;;;;;4985178;28;20532;-86
2022/03/13 12:01:34;;;;;;;4.45;3.30;;;14.70;87.50;;;;;;4969443;28;20043;-84
2022/03/13 12:04:27;;;;;;;6.33;4.43;;;14.70;87.40;;;;;;5002853;28;20035;-85
2022/03/13 12:07:00;;;;;;;6.25;4.20;;;14.70;87.50;;;;;;4963679;28;20286;-84
2022/03/13 12:09:40;;;;;;;5.07;4.13;;;14.70;87.20;;;;;;4971096;28;20043;-86
2022/03/13 12:12:10;;;;;;;4.55;3.70;;;15.00;87.10;;;;;;4986425;28;20151;-86
2022/03/13 12:14:56;;;;;;;5.95;4.05;;;15.00;87.30;;;;;;4986062;28;20535;-86
2022/03/13 12:17:27;;;;;;;5.35;3.58;;;15.20;87.30;;;;;;5002862;28;20059;-86
2022/03/13 12:19:57;;;;;;;6.47;3.90;;;15.20;86.90;;;;;;4972215;28;20074;-84
2022/03/13 12:22:28;;;;;;;5.10;3.90;;;15.40;86.60;;;;;;5002918;28;20046;-84
2022/03/13 12:24:59;;;;;;;5.45;3.72;;;15.60;86.20;;;;;;4972198;28;20065;-86
2022/03/13 12:27:27;;;;;;;6.40;4.45;;;15.70;86.00;;;;;;5002983;28;20047;-84
2022/03/13 12:29:57;;;;;;;4.35;3.70;;;15.50;85.30;;;;;;4970604;28;20045;-86
2022/03/13 12:32:30;;;;;;;3.83;3.28;;;15.40;85.60;;;;;;4970649;28;20055;-86
2022/03/13 12:34:59;;;;;;;6.05;3.72;;;15.50;85.40;;;;;;4990253;28;20058;-86
2022/03/13 12:37:29;;;;;;;6.43;3.42;;;15.50;85.20;;;;;;4986376;28;20489;-84
2022/03/13 12:40:00;;;;;;;4.72;3.50;;;15.70;85.00;;;;;;4971864;28;20049;-83
2022/03/13 12:42:34;;;;;;;4.38;3.35;;;15.90;85.00;;;;;;4985449;28;20058;-83
2022/03/13 12:45:09;;;;;;;4.70;3.40;;;15.90;84.80;;;;;;4992324;28;20042;-84
2022/03/13 12:47:42;;;;;;;4.63;3.70;;;15.90;84.60;;;;;;5002858;28;20516;-84
2022/03/13 12:50:12;;;;;;;8.88;5.65;;;16.00;84.50;;;;;;5010946;28;20070;-85
2022/03/13 12:52:44;;;;;;;35.78;23.65;;;16.00;84.30;;;;;;5003437;28;20062;-84
2022/03/13 12:55:13;;;;;;;15.93;11.23;;;15.90;83.80;;;;;;5018313;28;20064;-84
2022/03/13 12:57:53;;;;;;;9.90;6.85;;;15.90;83.70;;;;;;4970418;28;20043;-85
2022/03/13 13:00:32;;;;;;;7.53;5.15;;;16.00;83.80;;;;;;4993047;28;20054;-85
2022/03/13 13:03:03;;;;;;;9.82;4.72;;;15.90;83.40;;;;;;4970782;28;20556;-85
2022/03/13 13:05:32;;;;;;;4.97;3.75;;;16.00;83.40;;;;;;4969930;28;20172;-85
2022/03/13 13:08:02;;;;;;;4.97;3.88;;;16.20;82.40;;;;;;4985914;28;20043;-84